createdAt,value
2017-05-13T00:00:36.222Z,1000.03
2017-05-13T00:01:36.205Z,1000.04
2017-05-13T00:02:36.194Z,1000.1
2017-05-13T00:03:36.170Z,1000.07
2017-05-13T00:04:36.152Z,1000.06
2017-05-13T00:05:36.143Z,1000.08
2017-05-13T00:06:36.128Z,1000.08
2017-05-13T00:07:36.116Z,1000.1
2017-05-13T00:08:36.096Z,1000.11
2017-05-13T00:09:36.076Z,1000.09
2017-05-13T00:10:36.075Z,1000.1
2017-05-13T00:11:36.047Z,1000.1
2017-05-13T00:12:36.024Z,1000.09
2017-05-13T00:13:36.016Z,1000.07
2017-05-13T00:14:36.002Z,1000.08
2017-05-13T00:15:35.985Z,1000.06
2017-05-13T00:16:35.967Z,1000.08
2017-05-13T00:17:35.943Z,1000.08
2017-05-13T00:18:35.940Z,1000.1
2017-05-13T00:19:35.922Z,1000.08
2017-05-13T00:20:35.924Z,1000.08
2017-05-13T00:21:35.885Z,1000.08
2017-05-13T00:22:35.873Z,1000.09
2017-05-13T00:23:35.848Z,1000.07
2017-05-13T00:24:35.881Z,1000.04
2017-05-13T00:25:35.812Z,1000.02
2017-05-13T00:26:35.802Z,1000.02
2017-05-13T00:27:35.784Z,1000.03
2017-05-13T00:28:35.858Z,1000.03
2017-05-13T00:29:35.753Z,1000.03
2017-05-13T00:30:35.743Z,1000.05
2017-05-13T00:31:35.717Z,1000.03
2017-05-13T00:32:35.702Z,1000.01
2017-05-13T00:33:35.692Z,1000.03
2017-05-13T00:34:35.671Z,1000.05
2017-05-13T00:35:35.653Z,1000.01
2017-05-13T00:36:35.640Z,1000.06
2017-05-13T00:37:35.624Z,1000.09
2017-05-13T00:38:35.612Z,1000.04
2017-05-13T00:39:35.585Z,1000.05
2017-05-13T00:40:35.573Z,1000
2017-05-13T00:41:35.553Z,1000.06
2017-05-13T00:42:35.639Z,1000.04
2017-05-13T00:43:35.523Z,1000
2017-05-13T00:44:35.579Z,999.99
2017-05-13T00:45:35.492Z,1000
2017-05-13T00:46:35.495Z,999.97
2017-05-13T00:47:35.455Z,999.99
2017-05-13T00:48:35.440Z,999.98
2017-05-13T00:49:35.423Z,999.97
2017-05-13T00:50:35.413Z,999.97
2017-05-13T00:51:35.393Z,999.98
2017-05-13T00:52:35.375Z,999.97
2017-05-13T00:53:35.365Z,999.95
2017-05-13T00:54:35.369Z,999.9
2017-05-13T00:55:35.328Z,999.9
2017-05-13T00:56:35.323Z,999.89
2017-05-13T00:57:35.338Z,999.88
2017-05-13T00:58:35.279Z,999.89
2017-05-13T00:59:35.263Z,999.86
2017-05-13T01:00:35.248Z,999.87
2017-05-13T01:01:35.232Z,999.85
2017-05-13T01:02:35.211Z,999.82
2017-05-13T01:03:35.195Z,999.81
2017-05-13T01:04:35.182Z,999.77
2017-05-13T01:05:35.162Z,999.74
2017-05-13T01:06:35.153Z,999.7
2017-05-13T01:07:35.133Z,999.72
2017-05-13T01:08:35.123Z,999.7
2017-05-13T01:09:35.104Z,999.78
2017-05-13T01:10:35.082Z,999.76
2017-05-13T01:11:35.065Z,999.74
2017-05-13T01:12:35.053Z,999.76
2017-05-13T01:13:35.038Z,999.73
2017-05-13T01:14:35.017Z,999.75
2017-05-13T01:15:35.002Z,999.74
2017-05-13T01:16:34.983Z,999.71
2017-05-13T01:17:34.972Z,999.68
2017-05-13T01:18:34.995Z,999.69
2017-05-13T01:19:34.934Z,999.68
2017-05-13T01:20:34.923Z,999.65
2017-05-13T01:21:34.906Z,999.66
2017-05-13T01:22:34.889Z,999.62
2017-05-13T01:23:34.870Z,999.62
2017-05-13T01:24:34.865Z,999.64
2017-05-13T01:25:34.838Z,999.67
2017-05-13T01:26:34.823Z,999.62
2017-05-13T01:27:34.804Z,999.68
2017-05-13T01:28:34.790Z,999.65
2017-05-13T01:29:34.772Z,999.68
2017-05-13T01:30:34.759Z,999.69
2017-05-13T01:31:34.741Z,999.68
2017-05-13T01:32:34.724Z,999.69
2017-05-13T01:33:34.701Z,999.7
2017-05-13T01:34:34.691Z,999.68
2017-05-13T01:35:34.672Z,999.69
2017-05-13T01:36:34.653Z,999.7
2017-05-13T01:37:34.639Z,999.73
2017-05-13T01:38:34.619Z,999.72
2017-05-13T01:39:34.602Z,999.71
2017-05-13T01:40:34.588Z,999.76
2017-05-13T01:41:34.573Z,999.76
2017-05-13T01:42:34.558Z,999.79
2017-05-13T01:43:34.537Z,999.81
2017-05-13T01:44:34.521Z,999.84
2017-05-13T01:45:34.503Z,999.79
2017-05-13T01:46:34.494Z,999.84
2017-05-13T01:47:34.468Z,999.87
2017-05-13T01:48:34.452Z,999.88
2017-05-13T01:49:34.438Z,999.92
2017-05-13T01:50:34.420Z,999.96
2017-05-13T01:51:34.399Z,999.95
2017-05-13T01:52:34.394Z,999.98
2017-05-13T01:53:34.369Z,1000.02
2017-05-13T01:54:34.352Z,1000.06
2017-05-13T01:55:34.332Z,1000.05
2017-05-13T01:56:34.325Z,1000.05
2017-05-13T01:57:34.302Z,1000.02
2017-05-13T01:58:34.280Z,1000.07
2017-05-13T01:59:34.262Z,1000.09
2017-05-13T02:00:34.254Z,1000.08
2017-05-13T02:01:34.231Z,1000.04
2017-05-13T02:02:34.214Z,1000.05
2017-05-13T02:03:34.202Z,1000.04
2017-05-13T02:04:34.179Z,1000.05
2017-05-13T02:05:34.162Z,1000.07
2017-05-13T02:06:34.143Z,1000.07
2017-05-13T02:07:34.132Z,1000.07
2017-05-13T02:08:34.108Z,1000.07
2017-05-13T02:09:34.093Z,1000.1
2017-05-13T02:10:34.074Z,1000.09
2017-05-13T02:11:34.062Z,1000.1
2017-05-13T02:12:34.048Z,1000.09
2017-05-13T02:13:34.020Z,1000.08
2017-05-13T02:14:34.002Z,1000.05
2017-05-13T02:15:33.985Z,1000.04
2017-05-13T02:16:33.972Z,1000.04
2017-05-13T02:17:33.953Z,1000.05
2017-05-13T02:18:33.940Z,1000.05
2017-05-13T02:19:33.916Z,1000.06
2017-05-13T02:20:33.910Z,1000.07
2017-05-13T02:21:33.883Z,1000.03
2017-05-13T02:22:33.866Z,1000.05
2017-05-13T02:23:33.854Z,1000.02
2017-05-13T02:24:33.829Z,1000.07
2017-05-13T02:25:33.814Z,1000.08
2017-05-13T02:26:33.803Z,1000.09
2017-05-13T02:27:33.787Z,1000.09
2017-05-13T02:28:33.766Z,1000.08
2017-05-13T02:29:33.744Z,1000.11
2017-05-13T02:30:33.736Z,1000.09
2017-05-13T02:31:33.722Z,1000.1
2017-05-13T02:32:33.692Z,1000.09
2017-05-13T02:33:33.674Z,1000.08
2017-05-13T02:34:33.656Z,1000.08
2017-05-13T02:35:33.645Z,1000.11
2017-05-13T02:36:33.624Z,1000.11
2017-05-13T02:37:33.608Z,1000.11
2017-05-13T02:38:33.594Z,1000.11
2017-05-13T02:39:33.575Z,1000.1
2017-05-13T02:40:33.552Z,1000.09
2017-05-13T02:41:33.538Z,1000.07
2017-05-13T02:42:33.517Z,1000.09
2017-05-13T02:43:33.502Z,1000.1
2017-05-13T02:44:33.482Z,1000.12
2017-05-13T02:45:33.472Z,1000.13
2017-05-13T02:46:33.448Z,1000.12
2017-05-13T02:47:33.433Z,1000.17
2017-05-13T02:48:33.413Z,1000.13
2017-05-13T02:49:33.402Z,1000.12
2017-05-13T02:50:33.385Z,1000.12
2017-05-13T02:51:33.361Z,1000.14
2017-05-13T02:52:33.353Z,1000.17
2017-05-13T02:53:33.331Z,1000.21
2017-05-13T02:54:33.310Z,1000.24
2017-05-13T02:55:33.299Z,1000.21
2017-05-13T02:56:33.283Z,1000.25
2017-05-13T02:57:33.264Z,1000.26
2017-05-13T02:58:33.243Z,1000.24
2017-05-13T02:59:33.233Z,1000.28
2017-05-13T03:00:33.216Z,1000.25
2017-05-13T03:01:33.192Z,1000.24
2017-05-13T03:02:33.180Z,1000.24
2017-05-13T03:03:33.160Z,1000.3
2017-05-13T03:04:33.140Z,1000.3
2017-05-13T03:05:33.124Z,1000.34
2017-05-13T03:06:33.111Z,1000.33
2017-05-13T03:07:33.095Z,1000.35
2017-05-13T03:08:33.075Z,1000.31
2017-05-13T03:09:33.060Z,1000.34
2017-05-13T03:10:33.042Z,1000.33
2017-05-13T03:11:33.018Z,1000.34
2017-05-13T03:12:33.002Z,1000.34
2017-05-13T03:13:32.984Z,1000.32
2017-05-13T03:14:32.970Z,1000.29
2017-05-13T03:15:32.954Z,1000.29
2017-05-13T03:16:32.940Z,1000.31
2017-05-13T03:17:32.923Z,1000.32
2017-05-13T03:18:32.905Z,1000.34
2017-05-13T03:19:32.885Z,1000.4
2017-05-13T03:20:32.874Z,1000.4
2017-05-13T03:21:32.854Z,1000.42
2017-05-13T03:22:32.834Z,1000.47
2017-05-13T03:23:32.815Z,1000.46
2017-05-13T03:24:32.796Z,1000.49
2017-05-13T03:25:32.780Z,1000.55
2017-05-13T03:26:32.762Z,1000.6
2017-05-13T03:27:32.748Z,1000.58
2017-05-13T03:28:32.734Z,1000.6
2017-05-13T03:29:32.712Z,1000.59
2017-05-13T03:30:32.692Z,1000.57
2017-05-13T03:31:32.677Z,1000.62
2017-05-13T03:32:32.658Z,1000.59
2017-05-13T03:33:32.652Z,1000.6
2017-05-13T03:34:32.632Z,1000.62
2017-05-13T03:35:32.613Z,1000.6
2017-05-13T03:36:32.594Z,1000.64
2017-05-13T03:37:32.575Z,1000.67
2017-05-13T03:38:32.557Z,1000.71
2017-05-13T03:39:32.541Z,1000.73
2017-05-13T03:40:32.530Z,1000.67
2017-05-13T03:41:32.511Z,1000.69
2017-05-13T03:42:32.490Z,1000.68
2017-05-13T03:43:32.481Z,1000.64
2017-05-13T03:44:32.456Z,1000.67
2017-05-13T03:45:32.442Z,1000.65
2017-05-13T03:46:32.423Z,1000.68
2017-05-13T03:47:32.410Z,1000.66
2017-05-13T03:48:32.387Z,1000.67
2017-05-13T03:49:32.451Z,1000.68
2017-05-13T03:50:32.355Z,1000.64
2017-05-13T03:51:32.340Z,1000.65
2017-05-13T03:52:32.321Z,1000.66
2017-05-13T03:53:32.325Z,1000.67
2017-05-13T03:54:32.295Z,1000.66
2017-05-13T03:55:32.380Z,1000.64
2017-05-13T03:56:32.253Z,1000.64
2017-05-13T03:57:32.243Z,1000.65
2017-05-13T03:58:32.223Z,1000.64
2017-05-13T03:59:32.203Z,1000.63
2017-05-13T04:00:32.188Z,1000.64
2017-05-13T04:01:32.171Z,1000.63
2017-05-13T04:02:32.151Z,1000.63
2017-05-13T04:03:32.134Z,1000.66
2017-05-13T04:04:32.116Z,1000.68
2017-05-13T04:05:32.101Z,1000.66
2017-05-13T04:06:32.086Z,1000.67
2017-05-13T04:07:32.076Z,1000.67
2017-05-13T04:08:32.049Z,1000.67
2017-05-13T04:09:32.033Z,1000.7
2017-05-13T04:10:32.013Z,1000.7
2017-05-13T04:11:31.998Z,1000.72
2017-05-13T04:12:31.981Z,1000.75
2017-05-13T04:13:31.962Z,1000.74
2017-05-13T04:14:31.943Z,1000.75
2017-05-13T04:15:31.931Z,1000.74
2017-05-13T04:16:31.910Z,1000.78
2017-05-13T04:17:31.939Z,1000.77
2017-05-13T04:18:31.875Z,1000.71
2017-05-13T04:19:31.865Z,1000.74
2017-05-13T04:20:31.843Z,1000.69
2017-05-13T04:21:31.932Z,1000.67
2017-05-13T04:22:31.805Z,1000.69
2017-05-13T04:23:31.835Z,1000.69
2017-05-13T04:24:31.773Z,1000.7
2017-05-13T04:25:31.756Z,1000.69
2017-05-13T04:26:31.740Z,1000.69
2017-05-13T04:27:31.730Z,1000.73
2017-05-13T04:28:31.714Z,1000.71
2017-05-13T04:29:31.742Z,1000.74
2017-05-13T04:30:31.672Z,1000.73
2017-05-13T04:31:31.705Z,1000.71
2017-05-13T04:32:31.642Z,1000.74
2017-05-13T04:33:31.623Z,1000.78
2017-05-13T04:34:31.608Z,1000.76
2017-05-13T04:35:31.592Z,1000.76
2017-05-13T04:36:31.570Z,1000.75
2017-05-13T04:37:31.553Z,1000.8
2017-05-13T04:38:31.543Z,1000.76
2017-05-13T04:39:31.521Z,1000.76
2017-05-13T04:40:31.503Z,1000.76
2017-05-13T04:41:31.484Z,1000.75
2017-05-13T04:42:31.467Z,1000.82
2017-05-13T04:43:31.453Z,1000.85
2017-05-13T04:44:31.435Z,1000.83
2017-05-13T04:45:31.423Z,1000.85
2017-05-13T04:46:31.403Z,1000.84
2017-05-13T04:47:31.387Z,1000.88
2017-05-13T04:48:31.370Z,1000.87
2017-05-13T04:49:31.353Z,1000.87
2017-05-13T04:50:31.334Z,1000.86
2017-05-13T04:51:31.323Z,1000.9
2017-05-13T04:52:31.311Z,1000.91
2017-05-13T04:53:31.285Z,1000.97
2017-05-13T04:54:31.263Z,1001
2017-05-13T04:55:31.257Z,1001
2017-05-13T04:56:31.233Z,1001.06
2017-05-13T04:57:31.214Z,1001.09
2017-05-13T04:58:31.205Z,1001.06
2017-05-13T04:59:31.184Z,1001.09
2017-05-13T05:00:31.164Z,1001.13
2017-05-13T05:01:31.146Z,1001.12
2017-05-13T05:02:31.126Z,1001.11
2017-05-13T05:03:31.115Z,1001.14
2017-05-13T05:04:31.102Z,1001.11
2017-05-13T05:05:31.083Z,1001.15
2017-05-13T05:06:31.063Z,1001.14
2017-05-13T05:07:31.047Z,1001.18
2017-05-13T05:08:31.046Z,1001.24
2017-05-13T05:09:31.009Z,1001.23
2017-05-13T05:10:30.992Z,1001.21
2017-05-13T05:11:30.980Z,1001.22
2017-05-13T05:12:30.962Z,1001.25
2017-05-13T05:13:30.946Z,1001.27
2017-05-13T05:14:30.929Z,1001.29
2017-05-13T05:15:30.916Z,1001.29
2017-05-13T05:16:30.899Z,1001.31
2017-05-13T05:17:30.884Z,1001.35
2017-05-13T05:18:30.878Z,1001.32
2017-05-13T05:19:30.853Z,1001.37
2017-05-13T05:20:30.838Z,1001.34
2017-05-13T05:21:30.814Z,1001.39
2017-05-13T05:22:30.795Z,1001.4
2017-05-13T05:23:30.783Z,1001.4
2017-05-13T05:24:30.762Z,1001.37
2017-05-13T05:25:30.751Z,1001.4
2017-05-13T05:26:30.733Z,1001.4
2017-05-13T05:27:30.711Z,1001.42
2017-05-13T05:28:30.693Z,1001.46
2017-05-13T05:29:30.680Z,1001.51
2017-05-13T05:30:30.660Z,1001.52
2017-05-13T05:31:30.645Z,1001.5
2017-05-13T05:32:30.626Z,1001.52
2017-05-13T05:33:30.616Z,1001.52
2017-05-13T05:34:30.593Z,1001.57
2017-05-13T05:35:30.581Z,1001.57
2017-05-13T05:36:30.565Z,1001.61
2017-05-13T05:37:30.542Z,1001.64
2017-05-13T05:38:30.533Z,1001.65
2017-05-13T05:39:30.510Z,1001.65
2017-05-13T05:40:30.494Z,1001.67
2017-05-13T05:41:30.485Z,1001.66
2017-05-13T05:42:30.461Z,1001.66
2017-05-13T05:43:30.452Z,1001.7
2017-05-13T05:44:30.430Z,1001.68
2017-05-13T05:45:30.413Z,1001.69
2017-05-13T05:46:30.402Z,1001.7
2017-05-13T05:47:30.386Z,1001.72
2017-05-13T05:48:30.363Z,1001.74
2017-05-13T05:49:30.354Z,1001.74
2017-05-13T05:50:30.335Z,1001.75
2017-05-13T05:51:30.313Z,1001.75
2017-05-13T05:52:30.301Z,1001.77
2017-05-13T05:53:30.283Z,1001.77
2017-05-13T05:54:30.300Z,1001.8
2017-05-13T05:55:30.246Z,1001.83
2017-05-13T05:56:30.233Z,1001.79
2017-05-13T05:57:30.215Z,1001.8
2017-05-13T05:58:30.203Z,1001.85
2017-05-13T05:59:30.183Z,1001.88
2017-05-13T06:00:30.165Z,1001.88
2017-05-13T06:01:30.147Z,1001.86
2017-05-13T06:02:30.132Z,1001.88
2017-05-13T06:03:30.116Z,1001.88
2017-05-13T06:04:30.104Z,1001.92
2017-05-13T06:05:30.082Z,1001.93
2017-05-13T06:06:30.065Z,1001.9
2017-05-13T06:07:30.055Z,1001.92
2017-05-13T06:08:30.035Z,1001.93
2017-05-13T06:09:30.023Z,1001.95
2017-05-13T06:10:29.998Z,1001.94
2017-05-13T06:11:29.986Z,1001.97
2017-05-13T06:12:29.971Z,1001.94
2017-05-13T06:13:29.954Z,1001.97
2017-05-13T06:14:29.934Z,1001.98
2017-05-13T06:15:29.919Z,1002.03
2017-05-13T06:16:29.903Z,1002
2017-05-13T06:17:29.892Z,1002
2017-05-13T06:18:29.868Z,1002.01
2017-05-13T06:19:29.852Z,1002.05
2017-05-13T06:20:29.837Z,1002.05
2017-05-13T06:21:29.823Z,1002.02
2017-05-13T06:22:29.812Z,1002.05
2017-05-13T06:23:29.792Z,1002.11
2017-05-13T06:24:29.775Z,1002.14
2017-05-13T06:25:29.752Z,1002.14
2017-05-13T06:26:29.742Z,1002.12
2017-05-13T06:27:29.725Z,1002.07
2017-05-13T06:28:29.712Z,1002.17
2017-05-13T06:29:29.694Z,1002.17
2017-05-13T06:30:29.672Z,1002.15
2017-05-13T06:31:29.665Z,1002.13
2017-05-13T06:32:29.642Z,1002.15
2017-05-13T06:33:29.632Z,1002.21
2017-05-13T06:34:29.612Z,1002.17
2017-05-13T06:35:29.603Z,1002.16
2017-05-13T06:36:29.582Z,1002.12
2017-05-13T06:37:29.565Z,1002.21
2017-05-13T06:38:29.543Z,1002.22
2017-05-13T06:39:29.528Z,1002.21
2017-05-13T06:40:29.513Z,1002.18
2017-05-13T06:41:29.503Z,1002.25
2017-05-13T06:42:29.493Z,1002.26
2017-05-13T06:43:29.470Z,1002.25
2017-05-13T06:44:29.452Z,1002.28
2017-05-13T06:45:29.433Z,1002.31
2017-05-13T06:46:29.420Z,1002.29
2017-05-13T06:47:29.404Z,1002.31
2017-05-13T06:48:29.387Z,1002.33
2017-05-13T06:49:29.375Z,1002.31
2017-05-13T06:50:29.360Z,1002.38
2017-05-13T06:51:29.343Z,1002.38
2017-05-13T06:52:29.326Z,1002.42
2017-05-13T06:53:29.315Z,1002.4
2017-05-13T06:54:29.291Z,1002.45
2017-05-13T06:55:29.282Z,1002.45
2017-05-13T06:56:29.264Z,1002.47
2017-05-13T06:57:29.252Z,1002.5
2017-05-13T06:58:29.232Z,1002.51
2017-05-13T06:59:29.223Z,1002.53
2017-05-13T07:00:29.205Z,1002.56
2017-05-13T07:01:29.182Z,1002.54
2017-05-13T07:02:29.174Z,1002.57
2017-05-13T07:03:29.155Z,1002.55
2017-05-13T07:04:29.140Z,1002.59
2017-05-13T07:05:29.132Z,1002.59
2017-05-13T07:06:29.111Z,1002.61
2017-05-13T07:07:29.094Z,1002.63
2017-05-13T07:08:29.075Z,1002.61
2017-05-13T07:09:29.066Z,1002.6
2017-05-13T07:10:29.047Z,1002.6
2017-05-13T07:11:29.033Z,1002.62
2017-05-13T07:12:29.016Z,1002.59
2017-05-13T07:13:29.002Z,1002.66
2017-05-13T07:14:28.983Z,1002.7
2017-05-13T07:15:28.978Z,1002.66
2017-05-13T07:16:28.954Z,1002.68
2017-05-13T07:17:28.942Z,1002.69
2017-05-13T07:18:28.928Z,1002.73
2017-05-13T07:19:28.916Z,1002.72
2017-05-13T07:20:28.898Z,1002.72
2017-05-13T07:21:28.888Z,1002.75
2017-05-13T07:22:28.876Z,1002.74
2017-05-13T07:23:28.852Z,1002.76
2017-05-13T07:24:28.835Z,1002.72
2017-05-13T07:25:28.826Z,1002.78
2017-05-13T07:26:28.803Z,1002.76
2017-05-13T07:27:28.791Z,1002.79
2017-05-13T07:28:28.773Z,1002.83
2017-05-13T07:29:28.760Z,1002.85
2017-05-13T07:30:28.786Z,1002.84
2017-05-13T07:31:28.728Z,1002.86
2017-05-13T07:32:28.709Z,1002.91
2017-05-13T07:33:28.696Z,1002.9
2017-05-13T07:34:28.683Z,1002.95
2017-05-13T07:35:28.670Z,1002.95
2017-05-13T07:36:28.702Z,1002.96
2017-05-13T07:37:28.638Z,1002.98
2017-05-13T07:38:28.622Z,1003
2017-05-13T07:39:28.641Z,1003.03
2017-05-13T07:40:28.595Z,1002.98
2017-05-13T07:41:28.577Z,1003.06
2017-05-13T07:42:28.570Z,1003.05
2017-05-13T07:43:28.555Z,1003.05
2017-05-13T07:44:28.544Z,1003.08
2017-05-13T07:45:28.534Z,1003.06
2017-05-13T07:46:28.514Z,1003.09
2017-05-13T07:47:28.525Z,1003.08
2017-05-13T07:48:28.483Z,1003.1
2017-05-13T07:49:28.464Z,1003.12
2017-05-13T07:50:28.452Z,1003.13
2017-05-13T07:51:28.433Z,1003.12
2017-05-13T07:52:28.420Z,1003.17
2017-05-13T07:53:28.404Z,1003.17
2017-05-13T07:54:28.396Z,1003.17
2017-05-13T07:55:28.378Z,1003.21
2017-05-13T07:56:28.364Z,1003.2
2017-05-13T07:57:28.343Z,1003.22
2017-05-13T07:58:28.334Z,1003.26
2017-05-13T07:59:28.326Z,1003.23
2017-05-13T08:00:28.300Z,1003.22
2017-05-13T08:01:28.286Z,1003.21
2017-05-13T08:02:28.273Z,1003.26
2017-05-13T08:03:28.256Z,1003.27
2017-05-13T08:04:28.244Z,1003.3
2017-05-13T08:05:28.231Z,1003.26
2017-05-13T08:06:28.213Z,1003.26
2017-05-13T08:07:28.201Z,1003.3
2017-05-13T08:08:28.194Z,1003.29
2017-05-13T08:09:28.182Z,1003.29
2017-05-13T08:10:28.153Z,1003.32
2017-05-13T08:11:28.141Z,1003.33
2017-05-13T08:12:28.134Z,1003.33
2017-05-13T08:13:28.116Z,1003.33
2017-05-13T08:14:28.101Z,1003.36
2017-05-13T08:15:28.083Z,1003.33
2017-05-13T08:16:28.073Z,1003.34
2017-05-13T08:17:28.065Z,1003.35
2017-05-13T08:18:28.041Z,1003.38
2017-05-13T08:19:28.024Z,1003.37
2017-05-13T08:20:28.056Z,1003.38
2017-05-13T08:21:27.995Z,1003.39
2017-05-13T08:22:27.980Z,1003.38
2017-05-13T08:23:27.974Z,1003.39
2017-05-13T08:24:28.024Z,1003.43
2017-05-13T08:25:27.946Z,1003.43
2017-05-13T08:26:27.926Z,1003.41
2017-05-13T08:27:27.915Z,1003.44
2017-05-13T08:28:27.895Z,1003.46
2017-05-13T08:29:27.879Z,1003.45
2017-05-13T08:30:27.863Z,1003.48
2017-05-13T08:31:27.856Z,1003.51
2017-05-13T08:32:27.837Z,1003.5
2017-05-13T08:33:27.825Z,1003.5
2017-05-13T08:34:27.810Z,1003.56
2017-05-13T08:35:27.793Z,1003.52
2017-05-13T08:36:27.783Z,1003.57
2017-05-13T08:37:27.770Z,1003.6
2017-05-13T08:38:27.752Z,1003.56
2017-05-13T08:39:27.740Z,1003.56
2017-05-13T08:40:27.723Z,1003.58
2017-05-13T08:41:27.711Z,1003.66
2017-05-13T08:42:27.699Z,1003.64
2017-05-13T08:43:27.683Z,1003.7
2017-05-13T08:44:27.675Z,1003.72
2017-05-13T08:45:27.689Z,1003.7
2017-05-13T08:46:27.644Z,1003.71
2017-05-13T08:47:27.631Z,1003.7
2017-05-13T08:48:27.613Z,1003.72
2017-05-13T08:49:27.599Z,1003.77
2017-05-13T08:50:27.589Z,1003.75
2017-05-13T08:51:27.571Z,1003.74
2017-05-13T08:52:27.566Z,1003.79
2017-05-13T08:53:27.546Z,1003.8
2017-05-13T08:54:27.530Z,1003.76
2017-05-13T08:55:27.517Z,1003.75
2017-05-13T08:56:27.503Z,1003.76
2017-05-13T08:57:27.493Z,1003.78
2017-05-13T08:58:27.478Z,1003.8
2017-05-13T08:59:27.465Z,1003.82
2017-05-13T09:00:27.461Z,1003.8
2017-05-13T09:01:27.439Z,1003.82
2017-05-13T09:02:27.421Z,1003.86
2017-05-13T09:03:27.414Z,1003.87
2017-05-13T09:04:27.398Z,1003.84
2017-05-13T09:05:27.386Z,1003.85
2017-05-13T09:06:27.375Z,1003.86
2017-05-13T09:07:27.360Z,1003.87
2017-05-13T09:08:27.347Z,1003.87
2017-05-13T09:09:27.334Z,1003.87
2017-05-13T09:10:27.322Z,1003.86
2017-05-13T09:11:27.316Z,1003.91
2017-05-13T09:12:27.294Z,1003.93
2017-05-13T09:13:27.281Z,1003.95
2017-05-13T09:14:27.271Z,1003.96
2017-05-13T09:15:27.258Z,1003.95
2017-05-13T09:16:27.242Z,1003.97
2017-05-13T09:17:27.232Z,1004.03
2017-05-13T09:18:27.223Z,1003.99
2017-05-13T09:19:27.207Z,1004.07
2017-05-13T09:20:27.196Z,1004.27
2017-05-13T09:21:27.183Z,1004.15
2017-05-13T09:22:27.172Z,1004.12
2017-05-13T09:23:27.161Z,1004.1
2017-05-13T09:24:27.148Z,1004.08
2017-05-13T09:25:27.139Z,1004.11
2017-05-13T09:26:27.134Z,1004.15
2017-05-13T09:27:27.121Z,1004.1
2017-05-13T09:28:27.139Z,1004.11
2017-05-13T09:29:27.106Z,1004.12
2017-05-13T09:30:27.093Z,1004.14
2017-05-13T09:31:27.076Z,1004.11
2017-05-13T09:32:27.067Z,1004.16
2017-05-13T09:33:27.095Z,1004.22
2017-05-13T09:34:27.046Z,1004.26
2017-05-13T09:35:27.036Z,1004.17
2017-05-13T09:36:27.023Z,1004.31
2017-05-13T09:37:27.026Z,1004.29
2017-05-13T09:38:27.009Z,1004.26
2017-05-13T09:39:27.003Z,1004.31
2017-05-13T09:40:26.993Z,1004.3
2017-05-13T09:41:26.987Z,1004.32
2017-05-13T09:42:26.976Z,1004.23
2017-05-13T09:43:26.970Z,1004.31
2017-05-13T09:44:26.962Z,1004.32
2017-05-13T09:45:26.954Z,1004.33
2017-05-13T09:46:26.996Z,1004.26
2017-05-13T09:47:26.939Z,1004.26
2017-05-13T09:48:26.931Z,1004.26
2017-05-13T09:49:26.925Z,1004.32
2017-05-13T09:50:26.925Z,1004.26
2017-05-13T09:51:26.912Z,1004.24
2017-05-13T09:52:26.907Z,1004.25
2017-05-13T09:53:26.904Z,1004.3
2017-05-13T09:54:26.896Z,1004.24
2017-05-13T09:55:26.884Z,1004.27
2017-05-13T09:56:26.878Z,1004.2
2017-05-13T09:57:26.874Z,1004.2
2017-05-13T09:58:26.868Z,1004.23
2017-05-13T09:59:26.858Z,1004.27
2017-05-13T10:00:26.852Z,1004.2
2017-05-13T10:01:26.842Z,1004.17
2017-05-13T10:02:26.847Z,1004.31
2017-05-13T10:03:26.837Z,1004.25
2017-05-13T10:04:26.822Z,1004.27
2017-05-13T10:05:26.814Z,1004.22
2017-05-13T10:06:26.866Z,1004.16
2017-05-13T10:07:26.806Z,1004.15
2017-05-13T10:08:26.792Z,1004.19
2017-05-13T10:09:26.787Z,1004.14
2017-05-13T10:10:26.774Z,1004.12
2017-05-13T10:11:26.775Z,1004.09
2017-05-13T10:12:26.766Z,1004.12
2017-05-13T10:13:26.751Z,1004.08
2017-05-13T10:14:26.747Z,1004.09
2017-05-13T10:15:26.738Z,1004.09
2017-05-13T10:16:26.728Z,1004.1
2017-05-13T10:17:26.714Z,1004.12
2017-05-13T10:18:26.703Z,1004.14
2017-05-13T10:19:26.692Z,1004.13
2017-05-13T10:20:26.691Z,1004.08
2017-05-13T10:21:26.686Z,1004.08
2017-05-13T10:22:26.662Z,1004.13
2017-05-13T10:23:26.654Z,1004.13
2017-05-13T10:24:26.647Z,1004.09
2017-05-13T10:25:26.636Z,1004.04
2017-05-13T10:26:26.625Z,1004.06
2017-05-13T10:27:26.623Z,1004.04
2017-05-13T10:28:26.604Z,1004.04
2017-05-13T10:29:26.596Z,1004.08
2017-05-13T10:30:26.590Z,1004.11
2017-05-13T10:31:26.578Z,1004.07
2017-05-13T10:32:26.565Z,1004.14
2017-05-13T10:33:26.554Z,1004.17
2017-05-13T10:34:26.539Z,1004.13
2017-05-13T10:35:26.542Z,1004.13
2017-05-13T10:36:26.529Z,1004.14
2017-05-13T10:37:26.513Z,1004.1
2017-05-13T10:38:26.500Z,1004.14
2017-05-13T10:39:26.494Z,1004.1
2017-05-13T10:40:26.488Z,1004.15
2017-05-13T10:41:26.535Z,1004.11
2017-05-13T10:42:26.465Z,1004.16
2017-05-13T10:43:26.455Z,1004.1
2017-05-13T10:44:26.444Z,1004.13
2017-05-13T10:45:26.538Z,1004.1
2017-05-13T10:46:26.424Z,1004.09
2017-05-13T10:47:26.417Z,1004.11
2017-05-13T10:48:26.404Z,1004.12
2017-05-13T10:49:26.401Z,1004.1
2017-05-13T10:50:26.388Z,1004.08
2017-05-13T10:51:26.386Z,1004.11
2017-05-13T10:52:26.373Z,1004.06
2017-05-13T10:53:26.366Z,1004.07
2017-05-13T10:54:26.349Z,1004.08
2017-05-13T10:55:26.344Z,1004.08
2017-05-13T10:56:26.333Z,1004.04
2017-05-13T10:57:26.324Z,1004.15
2017-05-13T10:58:26.312Z,1004.1
2017-05-13T10:59:26.306Z,1004.17
2017-05-13T11:00:26.292Z,1004.19
2017-05-13T11:01:26.283Z,1004.18
2017-05-13T11:02:26.274Z,1004.19
2017-05-13T11:03:26.273Z,1004.2
2017-05-13T11:04:26.257Z,1004.17
2017-05-13T11:05:26.247Z,1004.15
2017-05-13T11:06:26.238Z,1004.15
2017-05-13T11:07:26.234Z,1004.15
2017-05-13T11:08:26.225Z,1004.15
2017-05-13T11:09:26.213Z,1004.14
2017-05-13T11:10:26.203Z,1004.14
2017-05-13T11:11:26.193Z,1004.16
2017-05-13T11:12:26.188Z,1004.17
2017-05-13T11:13:26.182Z,1004.13
2017-05-13T11:14:26.175Z,1004.19
2017-05-13T11:15:26.162Z,1004.11
2017-05-13T11:16:26.154Z,1004.12
2017-05-13T11:17:26.143Z,1004.21
2017-05-13T11:18:26.135Z,1004.11
2017-05-13T11:19:26.124Z,1004.11
2017-05-13T11:20:26.127Z,1004.13
2017-05-13T11:21:26.114Z,1004.14
2017-05-13T11:22:26.104Z,1004.11
2017-05-13T11:23:26.089Z,1004.12
2017-05-13T11:24:26.094Z,1004.02
2017-05-13T11:25:26.074Z,1004.03
2017-05-13T11:26:26.068Z,1004.08
2017-05-13T11:27:26.065Z,1004.09
2017-05-13T11:28:26.112Z,1004.11
2017-05-13T11:29:26.041Z,1004.08
2017-05-13T11:30:26.045Z,1004.13
2017-05-13T11:31:26.037Z,1004.08
2017-05-13T11:32:26.025Z,1004.09
2017-05-13T11:33:26.010Z,1004.11
2017-05-13T11:34:26.002Z,1004.1
2017-05-13T11:35:25.993Z,1004.08
2017-05-13T11:36:25.989Z,1004.08
2017-05-13T11:37:25.988Z,1004.06
2017-05-13T11:38:25.969Z,1004.04
2017-05-13T11:39:25.964Z,1004.13
2017-05-13T11:40:25.952Z,1004.19
2017-05-13T11:41:25.953Z,1004.16
2017-05-13T11:42:25.944Z,1004.2
2017-05-13T11:43:25.930Z,1004.21
2017-05-13T11:44:25.917Z,1004.18
2017-05-13T11:45:25.915Z,1004.27
2017-05-13T11:46:25.914Z,1004.21
2017-05-13T11:47:25.894Z,1004.24
2017-05-13T11:48:25.891Z,1004.23
2017-05-13T11:49:25.881Z,1004.26
2017-05-13T11:50:25.872Z,1004.29
2017-05-13T11:51:25.874Z,1004.35
2017-05-13T11:52:25.857Z,1004.35
2017-05-13T11:53:25.862Z,1004.26
2017-05-13T11:54:25.842Z,1004.32
2017-05-13T11:55:25.832Z,1004.33
2017-05-13T11:56:25.832Z,1004.29
2017-05-13T11:57:25.825Z,1004.24
2017-05-13T11:58:25.810Z,1004.23
2017-05-13T11:59:25.814Z,1004.23
2017-05-13T12:00:25.797Z,1004.2
2017-05-13T12:01:25.792Z,1004.19
2017-05-13T12:02:25.784Z,1004.2
2017-05-13T12:03:25.773Z,1004.24
2017-05-13T12:04:25.782Z,1004.23
2017-05-13T12:05:25.761Z,1004.21
2017-05-13T12:06:25.747Z,1004.24
2017-05-13T12:07:25.744Z,1004.29
2017-05-13T12:08:25.733Z,1004.3
2017-05-13T12:09:25.731Z,1004.27
2017-05-13T12:10:25.721Z,1004.26